Time;durP1;ratioP1;P1;durP2;ratioP2;P2;SDS_P1;SDS_P2;PMS_P1;PMS_P2;Temp;Humidity;BMP_temperature;BMP_pressure;BME280_temperature;BME280_humidity;BME280_pressure;Samples;Min_cycle;Max_cycle;Signal;HPM_P1;HPM_P2
2021/07/02 00:01:41;;;;;;;0.32;0.00;;;26.90;48.10;;;;;;5107762;28;20462;-72
2021/07/02 00:04:09;;;;;;;0.03;0.00;;;26.90;48.10;;;;;;5107313;28;20048;-73
2021/07/02 00:06:36;;;;;;;0.20;0.10;;;26.90;48.10;;;;;;5110688;28;20134;-72
2021/07/02 00:09:03;;;;;;;0.00;0.00;;;26.90;48.10;;;;;;5093916;28;20146;-72
2021/07/02 00:11:30;;;;;;;0.30;0.10;;;26.90;48.10;;;;;;5111484;28;20126;-72
2021/07/02 00:13:57;;;;;;;0.20;0.00;;;26.90;48.10;;;;;;5111524;28;20138;-72
2021/07/02 00:16:24;;;;;;;0.00;0.00;;;26.90;48.10;;;;;;5111831;28;20075;-72
2021/07/02 00:18:54;;;;;;;0.00;0.00;;;26.90;48.10;;;;;;5111237;28;20572;-72
2021/07/02 00:21:21;;;;;;;0.20;0.10;;;26.90;48.20;;;;;;5111393;28;20124;-72
2021/07/02 00:23:48;;;;;;;0.00;0.00;;;26.90;48.10;;;;;;5111100;28;20546;-71
2021/07/02 00:26:16;;;;;;;0.00;0.00;;;26.90;48.10;;;;;;5111378;28;20130;-72
2021/07/02 00:28:43;;;;;;;0.08;0.08;;;26.80;48.00;;;;;;5110993;28;20047;-71
2021/07/02 00:31:11;;;;;;;0.00;0.00;;;26.80;48.10;;;;;;5111545;28;20476;-72
2021/07/02 00:33:38;;;;;;;0.08;0.08;;;26.80;48.10;;;;;;5110856;28;20073;-72
2021/07/02 00:36:05;;;;;;;0.65;0.00;;;26.80;48.10;;;;;;5110972;28;20094;-72
2021/07/02 00:38:32;;;;;;;0.17;0.00;;;26.80;48.10;;;;;;5111601;28;20319;-72
2021/07/02 00:41:00;;;;;;;0.08;0.00;;;26.90;48.20;;;;;;5111093;28;20071;-72
2021/07/02 00:43:27;;;;;;;0.10;0.00;;;26.90;48.20;;;;;;5110988;28;20061;-72
2021/07/02 00:45:54;;;;;;;0.10;0.00;;;26.80;48.10;;;;;;5110895;28;20041;-71
2021/07/02 00:48:21;;;;;;;0.00;0.00;;;26.80;48.10;;;;;;5110455;28;20131;-72
2021/07/02 00:50:50;;;;;;;0.05;0.05;;;26.80;48.10;;;;;;5111073;28;20552;-72
2021/07/02 00:53:18;;;;;;;0.00;0.00;;;26.80;48.10;;;;;;5110660;28;20082;-72
2021/07/02 00:55:48;;;;;;;0.20;0.00;;;26.80;48.10;;;;;;5111065;28;20126;-71
2021/07/02 00:58:18;;;;;;;0.20;0.15;;;26.80;48.10;;;;;;5110845;28;20120;-72
2021/07/02 01:00:46;;;;;;;0.00;0.00;;;26.90;48.20;;;;;;5110936;28;20043;-72
2021/07/02 01:03:13;;;;;;;0.00;0.00;;;26.90;48.20;;;;;;5093191;28;20127;-72
2021/07/02 01:05:43;;;;;;;0.03;0.00;;;26.80;48.10;;;;;;5110552;28;20083;-73
2021/07/02 01:08:10;;;;;;;0.00;0.00;;;26.80;48.10;;;;;;5110904;28;20474;-72
2021/07/02 01:10:37;;;;;;;0.00;0.00;;;26.80;48.10;;;;;;5110320;28;20054;-72
2021/07/02 01:13:06;;;;;;;0.00;0.00;;;26.80;48.10;;;;;;5110493;28;20142;-72
2021/07/02 01:15:33;;;;;;;0.10;0.00;;;26.90;48.10;;;;;;5110765;28;20075;-72
2021/07/02 01:18:09;;;;;;;0.00;0.00;;;26.80;48.10;;;;;;5110368;28;20537;-71
2021/07/02 01:20:37;;;;;;;0.00;0.00;;;26.80;48.10;;;;;;5110620;28;20082;-72
2021/07/02 01:23:04;;;;;;;0.00;0.00;;;26.80;48.00;;;;;;5110274;28;20135;-71
2021/07/02 01:25:33;;;;;;;0.00;0.00;;;26.80;48.00;;;;;;5110423;28;20120;-71
2021/07/02 01:28:01;;;;;;;0.00;0.00;;;26.80;48.10;;;;;;5110272;28;20043;-71
2021/07/02 01:30:28;;;;;;;0.68;0.15;;;26.80;48.10;;;;;;5110034;28;20500;-72
2021/07/02 01:32:56;;;;;;;0.05;0.00;;;26.80;48.10;;;;;;5110280;28;20131;-71
2021/07/02 01:35:24;;;;;;;0.00;0.00;;;26.80;48.10;;;;;;5109830;28;20072;-72
2021/07/02 01:37:51;;;;;;;0.00;0.00;;;26.80;48.10;;;;;;5110036;28;20051;-72
2021/07/02 01:40:18;;;;;;;0.00;0.00;;;26.80;48.10;;;;;;5109834;28;20049;-72
2021/07/02 01:42:45;;;;;;;0.20;0.10;;;26.80;48.10;;;;;;5109985;28;20130;-72
2021/07/02 01:45:12;;;;;;;0.00;0.00;;;26.80;48.10;;;;;;5110025;28;20081;-72
2021/07/02 01:47:40;;;;;;;0.10;0.10;;;26.80;48.10;;;;;;5110023;28;20075;-72
2021/07/02 01:50:08;;;;;;;0.03;0.03;;;26.80;48.20;;;;;;5109927;28;20135;-72
2021/07/02 01:52:35;;;;;;;0.57;0.10;;;26.80;48.10;;;;;;5109644;28;20126;-73
2021/07/02 01:55:04;;;;;;;0.00;0.00;;;26.80;48.10;;;;;;5109507;28;20043;-71
2021/07/02 01:57:32;;;;;;;0.00;0.00;;;26.80;48.10;;;;;;5109758;28;20134;-72
2021/07/02 01:59:59;;;;;;;0.00;0.00;;;26.80;48.10;;;;;;5109305;28;20053;-71
2021/07/02 02:02:26;;;;;;;0.00;0.00;;;26.80;48.10;;;;;;5109630;28;20101;-72
2021/07/02 02:04:54;;;;;;;0.08;0.08;;;26.80;48.10;;;;;;5109152;28;20504;-72
2021/07/02 02:07:21;;;;;;;0.00;0.00;;;26.80;48.70;;;;;;5109715;28;20062;-72
2021/07/02 02:09:48;;;;;;;0.10;0.00;;;26.70;48.10;;;;;;5109144;28;20047;-72
2021/07/02 02:12:19;;;;;;;0.08;0.00;;;26.70;48.10;;;;;;5109028;28;20073;-72
2021/07/02 02:14:46;;;;;;;0.05;0.05;;;26.70;48.10;;;;;;5109187;28;20501;-71
2021/07/02 02:17:13;;;;;;;0.00;0.00;;;26.80;48.20;;;;;;5108947;28;20127;-72
2021/07/02 02:19:40;;;;;;;0.00;0.00;;;26.70;48.10;;;;;;5108799;28;20504;-72
2021/07/02 02:22:07;;;;;;;0.03;0.00;;;26.70;48.20;;;;;;5109286;28;20048;-72
2021/07/02 02:24:35;;;;;;;0.00;0.00;;;26.80;48.20;;;;;;5108837;28;20130;-72
2021/07/02 02:27:03;;;;;;;0.00;0.00;;;26.80;48.20;;;;;;5109461;28;20134;-72
2021/07/02 02:29:30;;;;;;;0.00;0.00;;;26.70;48.10;;;;;;5108078;28;20064;-72
2021/07/02 02:31:57;;;;;;;0.30;0.00;;;26.80;48.20;;;;;;5091122;28;20130;-71
2021/07/02 02:34:25;;;;;;;0.00;0.00;;;26.70;48.10;;;;;;5108954;28;20097;-72
2021/07/02 02:36:53;;;;;;;0.00;0.00;;;26.80;48.20;;;;;;5108611;28;20075;-72
2021/07/02 02:39:20;;;;;;;0.65;0.00;;;26.80;48.20;;;;;;5108707;28;20134;-72
2021/07/02 02:41:47;;;;;;;0.85;0.00;;;26.80;48.10;;;;;;5108489;28;20132;-72
2021/07/02 02:44:14;;;;;;;0.10;0.10;;;26.80;48.10;;;;;;5108854;28;20126;-71
2021/07/02 02:46:41;;;;;;;1.00;0.00;;;26.80;48.10;;;;;;5108801;28;20120;-72
2021/07/02 02:49:09;;;;;;;0.00;0.00;;;26.80;48.10;;;;;;5108683;28;20074;-71
2021/07/02 02:51:37;;;;;;;0.43;0.15;;;26.80;48.10;;;;;;5108968;28;20094;-72
2021/07/02 02:54:04;;;;;;;0.00;0.00;;;26.80;48.10;;;;;;5108214;28;20094;-71
2021/07/02 02:56:31;;;;;;;0.08;0.08;;;26.80;48.10;;;;;;5108303;28;20043;-72
2021/07/02 02:58:58;;;;;;;0.00;0.00;;;26.80;48.10;;;;;;5108295;28;20053;-72
2021/07/02 03:01:26;;;;;;;0.00;0.00;;;26.80;48.10;;;;;;5108180;28;20044;-72
2021/07/02 03:03:53;;;;;;;0.00;0.00;;;26.80;48.10;;;;;;5107902;28;20047;-72
2021/07/02 03:06:20;;;;;;;0.00;0.00;;;26.70;48.00;;;;;;5108057;28;20416;-72
2021/07/02 03:08:47;;;;;;;0.10;0.00;;;26.70;48.00;;;;;;5108439;28;20130;-72
2021/07/02 03:11:18;;;;;;;0.00;0.00;;;26.70;48.00;;;;;;5108015;28;20105;-72
2021/07/02 03:13:46;;;;;;;0.00;0.00;;;26.80;48.10;;;;;;5108312;28;20134;-72
2021/07/02 03:16:13;;;;;;;0.00;0.00;;;26.80;48.10;;;;;;5108222;28;20054;-71
2021/07/02 03:18:40;;;;;;;0.17;0.00;;;26.80;48.00;;;;;;5108069;28;20047;-72
2021/07/02 03:21:08;;;;;;;0.10;0.10;;;26.80;48.00;;;;;;5107938;28;20051;-72
2021/07/02 03:23:35;;;;;;;0.00;0.00;;;26.80;48.00;;;;;;5107777;28;20138;-72
2021/07/02 03:26:02;;;;;;;0.00;0.00;;;26.80;48.00;;;;;;5108142;28;20166;-72
2021/07/02 03:28:32;;;;;;;0.20;0.20;;;26.80;48.00;;;;;;5108222;28;20171;-72
2021/07/02 03:30:59;;;;;;;0.00;0.00;;;26.80;47.90;;;;;;5107761;28;20078;-72
2021/07/02 03:33:26;;;;;;;0.10;0.00;;;26.80;47.90;;;;;;5108138;28;20052;-72
2021/07/02 03:35:53;;;;;;;0.00;0.00;;;26.80;47.90;;;;;;5107984;28;20150;-72
2021/07/02 03:38:22;;;;;;;0.00;0.00;;;26.90;47.90;;;;;;5107582;28;20142;-72
2021/07/02 03:40:49;;;;;;;0.10;0.10;;;26.80;47.80;;;;;;5105704;28;20077;-72
2021/07/02 03:43:17;;;;;;;0.00;0.00;;;26.80;47.80;;;;;;5108057;28;20048;-72
2021/07/02 03:45:44;;;;;;;0.00;0.00;;;26.90;47.80;;;;;;5108099;28;20079;-72
2021/07/02 03:48:12;;;;;;;0.00;0.00;;;26.90;47.80;;;;;;5107381;28;20051;-72
2021/07/02 03:50:39;;;;;;;0.00;0.00;;;26.90;47.80;;;;;;5108118;28;20051;-72
2021/07/02 03:53:06;;;;;;;0.00;0.00;;;26.90;47.70;;;;;;5107528;28;20070;-72
2021/07/02 03:55:35;;;;;;;0.00;0.00;;;26.90;47.80;;;;;;5107604;28;20101;-72
2021/07/02 03:58:03;;;;;;;0.08;0.00;;;26.90;47.70;;;;;;5107598;28;20130;-72
2021/07/02 04:00:31;;;;;;;1.27;0.10;;;26.90;47.60;;;;;;5107698;28;20052;-73
2021/07/02 04:02:58;;;;;;;0.00;0.00;;;27.00;47.60;;;;;;5108050;28;20071;-73
2021/07/02 04:05:25;;;;;;;0.88;0.00;;;27.00;47.60;;;;;;5107591;28;20043;-72
2021/07/02 04:07:53;;;;;;;0.00;0.00;;;27.00;47.60;;;;;;5107431;28;20077;-72
2021/07/02 04:10:20;;;;;;;0.40;0.10;;;27.00;47.50;;;;;;5107490;28;20134;-72
2021/07/02 04:12:47;;;;;;;0.00;0.00;;;27.00;47.50;;;;;;5106725;28;20054;-72
2021/07/02 04:15:14;;;;;;;0.25;0.00;;;27.10;47.50;;;;;;5107482;28;20412;-72
2021/07/02 04:17:41;;;;;;;0.00;0.00;;;27.10;47.40;;;;;;5106676;28;20040;-72
2021/07/02 04:20:11;;;;;;;0.08;0.08;;;27.10;47.40;;;;;;5107201;28;20059;-72
2021/07/02 04:22:39;;;;;;;0.00;0.00;;;27.10;47.30;;;;;;5106967;28;20549;-72
2021/07/02 04:25:09;;;;;;;0.00;0.00;;;27.20;47.30;;;;;;5107164;28;20043;-72
2021/07/02 04:27:37;;;;;;;0.10;0.10;;;27.20;47.30;;;;;;5107407;28;20047;-72
2021/07/02 04:30:06;;;;;;;0.08;0.00;;;27.20;47.20;;;;;;5107482;28;20055;-72
2021/07/02 04:32:35;;;;;;;0.05;0.05;;;27.20;47.20;;;;;;5105699;28;20067;-72
2021/07/02 04:35:09;;;;;;;0.00;0.00;;;27.20;47.10;;;;;;5094142;28;20854;-72
2021/07/02 04:37:37;;;;;;;0.00;0.00;;;27.20;47.10;;;;;;5099633;28;20044;-72
2021/07/02 04:40:08;;;;;;;0.00;0.00;;;27.30;47.20;;;;;;5073651;28;20047;-72
2021/07/02 04:42:36;;;;;;;0.00;0.00;;;27.30;47.10;;;;;;5089226;28;20079;-71
2021/07/02 04:45:05;;;;;;;0.00;0.00;;;27.30;47.00;;;;;;5088280;28;20040;-72
2021/07/02 04:47:33;;;;;;;0.10;0.00;;;27.30;47.00;;;;;;5099384;28;20139;-72
2021/07/02 04:50:01;;;;;;;0.00;0.00;;;27.30;46.90;;;;;;5105048;28;20040;-72
2021/07/02 04:52:28;;;;;;;0.03;0.03;;;27.30;46.90;;;;;;5109117;28;20043;-72
2021/07/02 04:54:55;;;;;;;0.00;0.00;;;27.30;46.90;;;;;;5107482;28;20497;-72
2021/07/02 04:57:22;;;;;;;0.00;0.00;;;27.40;46.90;;;;;;5106788;28;20500;-72
2021/07/02 04:59:51;;;;;;;0.00;0.00;;;27.30;46.80;;;;;;5110300;28;20071;-72
2021/07/02 05:02:18;;;;;;;0.20;0.10;;;27.40;46.80;;;;;;5109816;28;20071;-72
2021/07/02 05:04:45;;;;;;;0.00;0.00;;;27.40;46.80;;;;;;5108783;28;20043;-72
2021/07/02 05:07:13;;;;;;;0.10;0.00;;;27.40;46.80;;;;;;5108875;28;20536;-72
2021/07/02 05:09:41;;;;;;;0.20;0.15;;;27.30;47.10;;;;;;5106822;28;20135;-72
2021/07/02 05:12:10;;;;;;;0.00;0.00;;;27.10;47.40;;;;;;5100292;28;20120;-73
2021/07/02 05:14:38;;;;;;;0.98;0.10;;;26.90;47.70;;;;;;5087936;28;20449;-73
2021/07/02 05:17:09;;;;;;;0.15;0.05;;;26.60;48.40;;;;;;5096081;28;20047;-73
2021/07/02 05:19:40;;;;;;;0.73;0.00;;;26.30;49.30;;;;;;5092687;28;20040;-68
2021/07/02 05:22:16;;;;;;;0.20;0.10;;;26.00;50.00;;;;;;5102728;28;20067;-66
2021/07/02 05:24:43;;;;;;;4.22;0.77;;;25.70;50.60;;;;;;5100511;27;20071;-70
2021/07/02 05:27:10;;;;;;;0.20;0.20;;;25.50;50.90;;;;;;5097017;28;20549;-69
2021/07/02 05:29:38;;;;;;;2.22;0.40;;;25.30;50.70;;;;;;5096946;27;20132;-70
2021/07/02 05:32:05;;;;;;;2.50;1.10;;;25.10;50.60;;;;;;5100998;28;20151;-71
2021/07/02 05:34:33;;;;;;;0.60;0.60;;;24.80;50.60;;;;;;5099862;28;20085;-66
2021/07/02 05:37:01;;;;;;;0.52;0.40;;;24.50;50.70;;;;;;5104300;27;20166;-66
2021/07/02 05:39:28;;;;;;;4.55;1.20;;;24.30;51.50;;;;;;5102159;27;20130;-67
2021/07/02 05:41:56;;;;;;;2.80;0.70;;;24.10;52.50;;;;;;5096168;27;20445;-66
2021/07/02 05:44:24;;;;;;;0.50;0.50;;;24.00;52.60;;;;;;5097761;27;20147;-72
2021/07/02 05:46:51;;;;;;;0.98;0.93;;;24.00;52.70;;;;;;5101428;27;20102;-66
2021/07/02 05:49:18;;;;;;;0.57;0.57;;;23.90;52.90;;;;;;5091858;27;20777;-69
2021/07/02 05:51:46;;;;;;;0.47;0.47;;;23.80;52.20;;;;;;5102293;27;20083;-69
2021/07/02 05:54:13;;;;;;;0.63;0.55;;;23.70;52.00;;;;;;5098796;27;20061;-69
2021/07/02 05:56:40;;;;;;;0.60;0.60;;;23.50;51.80;;;;;;5103502;28;20035;-70
2021/07/02 05:59:07;;;;;;;0.75;0.75;;;23.40;51.70;;;;;;5096579;27;20047;-70
2021/07/02 06:01:35;;;;;;;2.50;0.80;;;23.30;51.60;;;;;;5096046;28;20076;-69
2021/07/02 06:04:02;;;;;;;1.70;0.63;;;23.20;51.90;;;;;;5093869;27;20052;-69
2021/07/02 06:06:30;;;;;;;0.90;0.75;;;23.10;52.00;;;;;;5081593;27;20063;-71
2021/07/02 06:08:57;;;;;;;0.60;0.60;;;23.00;51.90;;;;;;5095233;28;20138;-67
2021/07/02 06:11:25;;;;;;;4.38;0.80;;;22.90;52.50;;;;;;5084053;28;20130;-69
2021/07/02 06:13:52;;;;;;;0.77;0.68;;;23.00;52.60;;;;;;5098576;28;20564;-68
2021/07/02 06:16:19;;;;;;;0.88;0.88;;;23.00;52.10;;;;;;5097519;28;20138;-66
2021/07/02 06:18:47;;;;;;;2.05;0.80;;;23.10;51.50;;;;;;5089597;28;20063;-67
2021/07/02 06:21:14;;;;;;;1.42;0.80;;;23.10;51.10;;;;;;5096208;27;20130;-69
2021/07/02 06:23:41;;;;;;;2.15;1.17;;;23.10;51.40;;;;;;5098574;27;20056;-67
2021/07/02 06:26:08;;;;;;;0.90;0.90;;;23.10;51.60;;;;;;5103385;27;20046;-68
2021/07/02 06:28:37;;;;;;;2.53;0.93;;;23.10;51.20;;;;;;5092355;27;20091;-67
2021/07/02 06:31:04;;;;;;;1.23;1.08;;;23.00;51.60;;;;;;5102885;28;20134;-72
2021/07/02 06:33:32;;;;;;;0.60;0.60;;;23.00;51.60;;;;;;5082002;28;20047;-66
2021/07/02 06:35:59;;;;;;;2.60;1.38;;;23.00;51.80;;;;;;5094763;27;20146;-66
2021/07/02 06:38:26;;;;;;;0.75;0.75;;;23.10;51.40;;;;;;5095897;27;20056;-67
2021/07/02 06:40:54;;;;;;;1.38;0.98;;;23.10;51.30;;;;;;5095749;27;20135;-68
2021/07/02 06:43:21;;;;;;;0.98;0.88;;;23.00;51.80;;;;;;5095521;27;20108;-68
2021/07/02 06:45:48;;;;;;;1.40;0.60;;;22.90;52.40;;;;;;5097538;27;20074;-70
2021/07/02 06:48:16;;;;;;;0.80;0.80;;;22.80;52.90;;;;;;5095586;27;20047;-70
2021/07/02 06:50:44;;;;;;;1.17;1.08;;;22.80;53.20;;;;;;5103872;27;20070;-69
2021/07/02 06:53:12;;;;;;;0.88;0.88;;;22.80;53.40;;;;;;5101221;27;20126;-73
2021/07/02 06:55:40;;;;;;;0.98;0.93;;;22.80;53.90;;;;;;5099829;27;20142;-70
2021/07/02 06:58:09;;;;;;;0.75;0.70;;;22.80;54.30;;;;;;5104117;27;20097;-71
2021/07/02 07:00:38;;;;;;;0.77;0.70;;;22.90;55.50;;;;;;5100658;27;20086;-70
2021/07/02 07:03:07;;;;;;;0.70;0.70;;;23.00;55.10;;;;;;5076729;28;20464;-67
2021/07/02 07:05:35;;;;;;;2.85;0.60;;;23.10;55.20;;;;;;5099539;28;20096;-68
2021/07/02 07:08:04;;;;;;;0.63;0.63;;;23.20;54.90;;;;;;5091889;27;20036;-68
2021/07/02 07:10:32;;;;;;;2.45;0.73;;;23.30;55.00;;;;;;5099440;27;20113;-74
2021/07/02 07:13:01;;;;;;;0.80;0.80;;;23.40;55.00;;;;;;5096949;28;20070;-67
2021/07/02 07:15:29;;;;;;;3.30;1.42;;;23.50;55.00;;;;;;5096769;27;20505;-63
2021/07/02 07:17:56;;;;;;;1.55;0.93;;;23.50;54.80;;;;;;5078962;28;20044;-64
2021/07/02 07:20:23;;;;;;;2.25;0.80;;;23.60;54.10;;;;;;5101170;27;20449;-68
2021/07/02 07:22:51;;;;;;;0.65;0.65;;;23.60;53.80;;;;;;5099554;28;20381;-63
2021/07/02 07:25:21;;;;;;;0.70;0.70;;;23.70;53.70;;;;;;5098300;27;20098;-64
2021/07/02 07:27:48;;;;;;;3.88;0.80;;;23.80;53.80;;;;;;5101357;27;20116;-64
2021/07/02 07:30:15;;;;;;;2.92;1.15;;;23.80;54.00;;;;;;5080736;28;20051;-63
2021/07/02 07:32:46;;;;;;;2.20;0.90;;;23.90;53.40;;;;;;5097635;28;20043;-64
2021/07/02 07:35:26;;;;;;;;;;;23.90;53.10;;;;;;5099655;28;20082;-70
2021/07/02 07:37:55;;;;;;;1.30;1.20;;;23.90;53.20;;;;;;5079406;28;20095;-67
2021/07/02 07:40:28;;;;;;;2.92;1.10;;;23.90;53.30;;;;;;5097665;28;20444;-69
2021/07/02 07:42:55;;;;;;;1.00;0.68;;;24.00;53.10;;;;;;5096845;28;20134;-68
2021/07/02 07:45:24;;;;;;;0.70;0.70;;;24.10;52.90;;;;;;5096069;28;20048;-68
2021/07/02 07:47:52;;;;;;;2.28;0.82;;;24.10;52.70;;;;;;5101843;28;20048;-68
2021/07/02 07:50:23;;;;;;;2.10;0.80;;;24.10;52.90;;;;;;5099990;28;20101;-67
2021/07/02 07:53:01;;;;;;;0.82;0.82;;;24.10;53.00;;;;;;5095979;28;20078;-67
2021/07/02 07:55:30;;;;;;;0.70;0.70;;;24.20;52.80;;;;;;5104288;28;20127;-67
2021/07/02 07:57:58;;;;;;;2.38;0.95;;;24.20;52.70;;;;;;5097483;28;20047;-66
2021/07/02 08:00:25;;;;;;;0.90;0.90;;;24.30;52.60;;;;;;5095356;28;20078;-67
2021/07/02 08:02:53;;;;;;;1.15;1.05;;;24.30;52.60;;;;;;5102095;28;20135;-68
2021/07/02 08:05:20;;;;;;;0.70;0.70;;;24.30;52.30;;;;;;5095638;28;20106;-67
2021/07/02 08:07:48;;;;;;;1.73;0.98;;;24.40;52.10;;;;;;5095045;28;20123;-67
2021/07/02 08:10:18;;;;;;;3.50;0.65;;;24.50;51.70;;;;;;5096105;28;20062;-67
2021/07/02 08:12:45;;;;;;;0.88;0.80;;;24.50;51.50;;;;;;5097304;28;20084;-67
2021/07/02 08:15:15;;;;;;;1.05;0.95;;;24.60;51.30;;;;;;5076193;28;21258;-66
2021/07/02 08:17:42;;;;;;;0.80;0.80;;;24.60;51.20;;;;;;5094336;28;20417;-66
2021/07/02 08:20:11;;;;;;;1.95;1.08;;;24.70;51.20;;;;;;5096206;28;20404;-66
2021/07/02 08:22:39;;;;;;;1.05;0.70;;;24.70;51.20;;;;;;5097225;28;20093;-66
2021/07/02 08:25:07;;;;;;;0.68;0.68;;;24.80;51.40;;;;;;5094517;28;20124;-66
2021/07/02 08:29:22;;;;;;;1.98;0.77;;;24.80;51.10;;;;;;5098397;28;20044;-66
2021/07/02 08:30:22;;;;;;;1.70;0.93;;;24.80;50.80;;;;;;5106232;28;20058;-67
2021/07/02 08:32:50;;;;;;;1.33;1.20;;;24.90;50.60;;;;;;5102311;27;20124;-66
2021/07/02 08:35:21;;;;;;;1.95;1.15;;;24.90;50.40;;;;;;5101975;28;20489;-69
2021/07/02 08:37:52;;;;;;;0.93;0.93;;;25.00;50.90;;;;;;5098895;28;20043;-68
2021/07/02 08:40:21;;;;;;;1.50;1.10;;;25.10;50.20;;;;;;5098988;27;20071;-68
2021/07/02 08:42:51;;;;;;;1.60;0.82;;;25.10;50.10;;;;;;5097551;28;20043;-68
2021/07/02 08:45:18;;;;;;;0.73;0.73;;;25.10;50.10;;;;;;5098181;27;20427;-67
2021/07/02 08:47:45;;;;;;;1.35;1.00;;;25.10;50.00;;;;;;5082910;28;20075;-67
2021/07/02 08:50:14;;;;;;;1.60;0.80;;;25.10;49.70;;;;;;5104547;28;20135;-67
2021/07/02 08:52:41;;;;;;;5.00;1.13;;;25.20;49.60;;;;;;5097892;28;20085;-70
2021/07/02 08:55:12;;;;;;;2.75;1.15;;;25.20;49.30;;;;;;5103005;27;20040;-68
2021/07/02 08:57:40;;;;;;;1.10;1.00;;;25.20;49.20;;;;;;5103461;27;20043;-69
2021/07/02 09:00:10;;;;;;;4.10;1.20;;;25.20;49.00;;;;;;5102829;27;20060;-68
2021/07/02 09:02:39;;;;;;;1.27;0.70;;;25.20;48.90;;;;;;5102952;27;20076;-69
2021/07/02 09:05:33;;;;;;;2.88;1.00;;;25.20;48.90;;;;;;5105066;27;20504;-68
2021/07/02 09:08:01;;;;;;;5.68;1.05;;;25.20;48.90;;;;;;5105206;27;20148;-68
2021/07/02 09:10:31;;;;;;;1.15;1.05;;;25.20;49.20;;;;;;5083754;28;20165;-68
2021/07/02 09:12:59;;;;;;;1.70;1.13;;;25.10;48.60;;;;;;5102284;27;20754;-68
2021/07/02 09:15:26;;;;;;;1.20;1.10;;;25.10;46.90;;;;;;5107459;27;20436;-67
2021/07/02 09:17:56;;;;;;;3.60;0.82;;;25.10;46.80;;;;;;5095930;27;20449;-68
2021/07/02 09:20:29;;;;;;;2.65;0.95;;;25.10;47.00;;;;;;5083161;28;20131;-68
2021/07/02 09:22:59;;;;;;;0.82;0.82;;;25.10;47.40;;;;;;5100690;27;20040;-69
2021/07/02 09:25:29;;;;;;;2.67;1.08;;;25.10;47.60;;;;;;5102370;27;20094;-69
2021/07/02 09:28:01;;;;;;;1.50;1.00;;;25.10;47.90;;;;;;5102800;27;20104;-68
2021/07/02 09:30:30;;;;;;;1.98;1.30;;;25.10;48.10;;;;;;5098378;27;20490;-69
2021/07/02 09:33:01;;;;;;;0.95;0.95;;;25.10;48.20;;;;;;5104703;27;20718;-69
2021/07/02 09:35:32;;;;;;;1.25;0.75;;;25.10;48.40;;;;;;5101563;27;20067;-70
2021/07/02 09:38:01;;;;;;;3.67;1.35;;;25.10;48.60;;;;;;5103508;27;20090;-70
2021/07/02 09:40:31;;;;;;;0.57;0.57;;;25.10;49.20;;;;;;5092758;27;20117;-69
2021/07/02 09:43:02;;;;;;;0.80;0.80;;;25.10;48.80;;;;;;5104291;27;20126;-70
2021/07/02 09:45:30;;;;;;;2.08;0.73;;;25.20;48.80;;;;;;5096423;28;20043;-70
2021/07/02 09:48:07;;;;;;;0.88;0.88;;;25.20;48.90;;;;;;5101143;27;20422;-69
2021/07/02 09:50:35;;;;;;;0.80;0.80;;;25.20;49.00;;;;;;5102026;27;20074;-70
2021/07/02 09:53:11;;;;;;;0.70;0.70;;;25.20;49.00;;;;;;5102042;27;20144;-69
2021/07/02 09:55:47;;;;;;;0.70;0.70;;;25.20;48.90;;;;;;5101872;27;20076;-70
2021/07/02 09:58:17;;;;;;;1.05;0.70;;;25.30;49.10;;;;;;5103373;28;20051;-69
2021/07/02 10:00:50;;;;;;;2.55;0.80;;;25.30;49.30;;;;;;5095093;28;20101;-72
2021/07/02 10:03:22;;;;;;;2.67;0.80;;;25.30;49.30;;;;;;5101115;28;20146;-69
2021/07/02 10:06:02;;;;;;;0.90;0.90;;;25.30;49.40;;;;;;5099760;27;20036;-71
2021/07/02 10:08:34;;;;;;;0.90;0.68;;;25.30;49.50;;;;;;5105269;27;20048;-72
2021/07/02 10:11:04;;;;;;;0.68;0.68;;;25.30;49.90;;;;;;5084351;28;20095;-70
2021/07/02 10:13:34;;;;;;;0.73;0.70;;;25.30;50.10;;;;;;5102356;27;20067;-69
2021/07/02 10:16:06;;;;;;;2.38;1.20;;;25.30;50.60;;;;;;5095575;27;20051;-69
2021/07/02 10:18:45;;;;;;;0.75;0.73;;;25.30;51.20;;;;;;5083821;28;20122;-68
2021/07/02 10:21:14;;;;;;;1.27;0.85;;;25.20;51.30;;;;;;5096150;27;20055;-69
2021/07/02 10:23:44;;;;;;;1.27;0.90;;;25.20;50.90;;;;;;5096556;28;20041;-69
2021/07/02 10:26:12;;;;;;;;;;;25.20;50.90;;;;;;5079557;28;20138;-69
2021/07/02 10:28:41;;;;;;;0.93;0.80;;;25.20;50.40;;;;;;5098039;27;19923;-68
2021/07/02 10:31:10;;;;;;;2.88;0.82;;;25.10;50.70;;;;;;5096145;27;20519;-70
2021/07/02 10:33:46;;;;;;;1.08;0.93;;;25.10;51.30;;;;;;5103944;27;20043;-68
2021/07/02 10:36:15;;;;;;;1.40;0.80;;;25.10;52.00;;;;;;5085620;28;20047;-67
2021/07/02 10:38:47;;;;;;;5.93;1.05;;;25.10;52.30;;;;;;5103386;27;20044;-65
2021/07/02 10:41:20;;;;;;;4.95;1.00;;;25.10;52.30;;;;;;5098849;27;20051;-67
2021/07/02 10:44:09;;;;;;;1.33;0.80;;;25.10;52.80;;;;;;5092864;27;20218;-69
2021/07/02 10:46:41;;;;;;;1.10;1.00;;;25.10;52.90;;;;;;5084527;28;20108;-65
2021/07/02 10:49:11;;;;;;;1.20;0.75;;;25.10;53.00;;;;;;5100564;27;20066;-67
2021/07/02 10:51:43;;;;;;;2.17;1.08;;;25.10;52.90;;;;;;5079589;28;20039;-70
2021/07/02 10:54:31;;;;;;;1.73;1.40;;;25.10;53.40;;;;;;5080973;27;20048;-68
2021/07/02 10:57:04;;;;;;;2.22;0.95;;;25.10;53.70;;;;;;5082909;28;20134;-69
2021/07/02 10:59:59;;;;;;;1.20;1.00;;;25.10;53.60;;;;;;5091746;27;20412;-68
2021/07/02 11:02:27;;;;;;;1.50;1.40;;;25.10;53.10;;;;;;5081445;28;20062;-69
2021/07/02 11:05:00;;;;;;;2.22;0.95;;;25.10;53.00;;;;;;5097324;28;20048;-71
2021/07/02 11:07:38;;;;;;;1.17;1.00;;;25.10;53.00;;;;;;5096211;27;20515;-67
2021/07/02 11:10:07;;;;;;;2.75;0.93;;;25.10;53.20;;;;;;5098437;27;20116;-67
2021/07/02 11:12:57;;;;;;;2.08;0.95;;;25.10;53.20;;;;;;5092849;28;20469;-65
2021/07/02 11:15:24;;;;;;;;;;;25.10;53.30;;;;;;5098693;27;20132;-64
2021/07/02 11:18:12;;;;;;;1.15;1.13;;;25.20;53.00;;;;;;5095545;28;19978;-65
2021/07/02 11:20:40;;;;;;;1.73;1.10;;;25.20;52.80;;;;;;5095693;28;20142;-71
2021/07/02 11:23:17;;;;;;;3.67;1.60;;;25.20;53.00;;;;;;5097241;28;20143;-70
2021/07/02 11:25:58;;;;;;;1.15;0.90;;;25.20;52.80;;;;;;5098638;28;20142;-68
2021/07/02 11:28:35;;;;;;;;;;;25.20;52.70;;;;;;5096287;28;20077;-67
2021/07/02 11:31:06;;;;;;;2.22;1.42;;;25.30;52.50;;;;;;5099490;28;19950;-69
2021/07/02 11:33:35;;;;;;;1.52;0.98;;;25.20;51.90;;;;;;5099861;28;20101;-68
2021/07/02 11:36:08;;;;;;;4.28;1.33;;;25.30;52.10;;;;;;5090357;28;20051;-69
2021/07/02 11:38:52;;;;;;;1.70;1.30;;;25.30;52.40;;;;;;5091527;28;20035;-69
2021/07/02 11:41:24;;;;;;;1.00;1.00;;;25.30;52.90;;;;;;5098076;28;20447;-68
2021/07/02 11:43:53;;;;;;;2.33;1.30;;;25.30;53.30;;;;;;5097157;28;20079;-72
2021/07/02 11:46:21;;;;;;;1.15;1.08;;;25.40;53.00;;;;;;5080148;28;20138;-71
2021/07/02 11:48:54;;;;;;;6.03;1.35;;;25.40;52.80;;;;;;5094863;28;20052;-71
2021/07/02 11:51:25;;;;;;;5.15;1.15;;;25.50;52.60;;;;;;5100255;28;20071;-69
2021/07/02 11:54:01;;;;;;;1.00;1.00;;;25.50;52.70;;;;;;5099916;28;20067;-70
2021/07/02 11:56:31;;;;;;;1.63;1.20;;;25.50;52.50;;;;;;5096847;28;20131;-65
2021/07/02 11:59:01;;;;;;;2.17;1.50;;;25.50;52.30;;;;;;5096356;28;20075;-70
2021/07/02 12:01:37;;;;;;;2.83;1.27;;;25.50;52.60;;;;;;5094740;28;20557;-66
2021/07/02 12:04:22;;;;;;;1.02;0.95;;;25.60;53.10;;;;;;5100759;27;20058;-71
2021/07/02 12:06:52;;;;;;;4.72;1.55;;;25.70;53.00;;;;;;5106948;27;20090;-71
2021/07/02 12:09:21;;;;;;;3.83;1.40;;;25.70;53.20;;;;;;5086585;28;20056;-70
2021/07/02 12:11:59;;;;;;;1.20;1.10;;;25.70;52.60;;;;;;5098501;28;20055;-72
2021/07/02 12:14:37;;;;;;;1.70;1.40;;;25.80;52.40;;;;;;5096522;28;20090;-71
2021/07/02 12:17:05;;;;;;;2.35;1.50;;;25.80;51.60;;;;;;5104369;28;20086;-71
2021/07/02 12:19:35;;;;;;;2.33;1.20;;;25.80;51.20;;;;;;5100210;27;20032;-71
2021/07/02 12:22:05;;;;;;;;;;;25.80;50.90;;;;;;5111939;28;20043;-71
2021/07/02 12:24:36;;;;;;;2.20;1.90;;;25.80;50.70;;;;;;5093364;28;20431;-71
2021/07/02 12:27:06;;;;;;;1.15;1.10;;;25.90;50.60;;;;;;5109804;28;20098;-71
2021/07/02 12:29:33;;;;;;;2.08;1.17;;;25.80;50.30;;;;;;5110751;28;20086;-71
2021/07/02 12:32:04;;;;;;;1.48;1.33;;;25.80;50.70;;;;;;5107380;28;20064;-70
2021/07/02 12:34:41;;;;;;;3.22;1.50;;;25.80;50.30;;;;;;5103230;28;20071;-71
2021/07/02 12:37:11;;;;;;;2.25;1.30;;;25.70;50.10;;;;;;5107961;28;20161;-71
2021/07/02 12:39:44;;;;;;;2.35;1.35;;;25.70;50.10;;;;;;5107044;28;20481;-69
2021/07/02 12:42:17;;;;;;;1.85;1.40;;;25.70;50.10;;;;;;5102300;28;20087;-71
2021/07/02 12:44:47;;;;;;;1.27;1.15;;;25.70;50.30;;;;;;5108754;28;20044;-72
2021/07/02 12:47:15;;;;;;;3.97;1.10;;;25.60;50.20;;;;;;5101166;28;20040;-71
2021/07/02 12:49:53;;;;;;;1.70;1.23;;;25.60;50.30;;;;;;5107357;28;20048;-71
2021/07/02 12:55:22;;;;;;;1.85;1.70;;;25.60;50.40;;;;;;5088617;28;20059;-71
2021/07/02 12:57:54;;;;;;;1.55;1.45;;;25.60;50.30;;;;;;5089754;28;20075;-71
2021/07/02 13:00:26;;;;;;;4.72;1.77;;;25.60;50.00;;;;;;5089080;28;20756;-68
2021/07/02 13:02:59;;;;;;;6.20;1.50;;;25.60;50.00;;;;;;5096333;28;20465;-69